Flinterbrise — PHCA — position and weather

sailwx.info

Track history (hours):
 
Tides and Currents Weather Stations Pressure Air Temp Water Temp Dewpoint Dewpoint Depression Visibility Wind Speed Wind Dir Waves Ship Positions

Flinterbrise

Last reported at 2015-Jul-29 06:31 UTC. Time now 2015-Jul-29 06:53 UTC.
Position N 53°45' W 000°17'.

Length 83 m; draft 5.3 m.

Type: Cargo ship. MMSI: 246044000.

Date/timePositionNaut miles runAvg speedWind from/ knotsBaromVisibWave heightAir tempDewpointWater temp
2015-Jul-29 06:31N 53°45' W 000°17'0 0.0
2015-Jul-29 05:31N 53°45' W 000°17'0 0.0
2015-Jul-29 04:31N 53°45' W 000°17'0 0.0
2015-Jul-29 03:31N 53°45' W 000°17'0 0.0
2015-Jul-29 02:31N 53°45' W 000°17'0 0.0
2015-Jul-29 01:31N 53°45' W 000°17'0 0.0
2015-Jul-29 00:31N 53°45' W 000°17'0 0.0
2015-Jul-28 23:31N 53°45' W 000°17'0 0.0
2015-Jul-28 22:31N 53°45' W 000°17'0 0.0
2015-Jul-28 21:28N 53°45' W 000°17'0 0.0
2015-Jul-28 20:31N 53°45' W 000°17'0 0.0
2015-Jul-28 19:31N 53°45' W 000°17'0 0.0
2015-Jul-28 18:31N 53°45' W 000°17'0 0.0
2015-Jul-28 17:31N 53°45' W 000°17'0 0.0
2015-Jul-28 16:31N 53°45' W 000°17'0 0.0
2015-Jul-28 15:31N 53°45' W 000°17'0 0.3
2015-Jul-28 14:33N 53°45' W 000°18'3 2.9
2015-Jul-28 13:33N 53°43' W 000°14'1111.0
2015-Jul-28 12:34N 53°35' W 000°00'1110.7
2015-Jul-28 11:33N 53°33' E 000°17'5 5.2
2015-Jul-28 10:32N 53°36' E 000°25'0 0.1
2015-Jul-28 09:26N 53°36' E 000°25'0 0.0
2015-Jul-28 07:08N 53°36' E 000°25'0 0.0
2015-Jul-28 05:26N 53°36' E 000°25'0 0.1
2015-Jul-28 04:26N 53°36' E 000°25'1 1.5
2015-Jul-28 03:33N 53°37' E 000°26'162 7.0
2015-Jul-27 04:31N 54°05' E 004°56'6 5.8
2015-Jul-27 03:32N 54°06' E 005°06'6 5.8
2015-Jul-27 02:33N 54°06' E 005°16'6 6.0
2015-Jul-27 01:33N 54°07' E 005°26'6 6.3
2015-Jul-27 00:32N 54°08' E 005°36'7 6.9
2015-Jul-26 23:33N 54°09' E 005°48'40 7.9
2015-Jul-26 18:25N 54°12' E 006°57'7 8.1
2015-Jul-26 17:33N 54°12' E 007°09'8 7.6
2015-Jul-26 16:33N 54°12' E 007°22'7 7.3
2015-Jul-26 15:33N 54°11' E 007°34'6 6.1
2015-Jul-26 14:33N 54°09' E 007°43'7 6.7
2015-Jul-26 13:33N 54°06' E 007°53'7 7.2
2015-Jul-26 12:33N 54°02' E 008°04'9 8.5
2015-Jul-26 11:33N 54°00' E 008°18'1312.6
2015-Jul-26 10:34N 53°57' E 008°39'1211.6
2015-Jul-26 09:33N 53°51' E 008°56'4 4.2
2015-Jul-26 08:31N 53°52' E 009°03'0 0.0
2015-Jul-26 07:31N 53°52' E 009°03'0 0.0
2015-Jul-26 06:28N 53°52' E 009°03'0 0.0
2015-Jul-26 05:28N 53°52' E 009°03'0 0.0
2015-Jul-26 04:31N 53°52' E 009°03'0 0.1
2015-Jul-26 03:22N 53°52' E 009°03'0 0.1
2015-Jul-26 02:31N 53°52' E 009°03'0 0.0
2015-Jul-26 01:31N 53°52' E 009°03'0 0.0
2015-Jul-26 00:31N 53°52' E 009°03'0 0.1
2015-Jul-25 23:28N 53°52' E 009°03'4 4.2
2015-Jul-25 22:33N 53°54' E 009°09'2 1.4
2015-Jul-25 21:19N 53°55' E 009°11'0 0.0
2015-Jul-25 20:33N 53°55' E 009°11'6 5.8
2015-Jul-25 19:33N 53°59' E 009°17'4 3.9
2015-Jul-25 18:32N 54°03' E 009°18'15 7.3
2015-Jul-25 16:29N 54°14' E 009°36'12 6.3
2015-Jul-25 14:33N 54°22' E 009°52'8 8.1
2015-Jul-25 13:33N 54°22' E 010°06'2 2.2
2015-Jul-25 12:33N 54°22' E 010°10'1 0.5
2015-Jul-25 11:33N 54°23' E 010°10'0 0.0
2015-Jul-25 10:33N 54°23' E 010°10'0 0.0
2015-Jul-25 09:33N 54°23' E 010°10'0 0.0
2015-Jul-25 08:33N 54°23' E 010°10'0 0.0
2015-Jul-25 07:33N 54°23' E 010°10'0 0.0
2015-Jul-25 06:33N 54°23' E 010°10'0 0.0
2015-Jul-25 05:33N 54°23' E 010°10'0 0.0
2015-Jul-25 04:33N 54°23' E 010°10'0 0.1
2015-Jul-25 03:30N 54°23' E 010°11'0 0.1
2015-Jul-25 02:33N 54°23' E 010°10'0 0.0
2015-Jul-25 01:33N 54°23' E 010°10'0 0.0
2015-Jul-25 00:33N 54°23' E 010°10'0 0.0
2015-Jul-24 23:27N 54°23' E 010°10'1 0.6
2015-Jul-24 22:34N 54°23' E 010°11'10 9.6
2015-Jul-24 21:34N 54°31' E 010°21'2010.1
2015-Jul-24 19:32N 54°36' E 010°55'10 9.8
2015-Jul-24 18:34N 54°36' E 011°12'1010.2
2015-Jul-24 17:33N 54°31' E 011°28'10 9.9
2015-Jul-24 16:33N 54°27' E 011°43'9 9.3
2015-Jul-24 15:34N 54°26' E 011°59'9 8.3
2015-Jul-24 14:32N 54°31' E 012°11'80 8.8
2015-Jul-24 05:29N 55°10' E 014°12'7 7.2
2015-Jul-24 04:33N 55°15' E 014°20'7 7.2
2015-Jul-24 03:33N 55°21' E 014°28'7 7.2
2015-Jul-24 02:33N 55°26' E 014°36'7 7.3
2015-Jul-24 01:33N 55°30' E 014°46'7 7.1
2015-Jul-24 00:30N 55°35' E 014°57'7 7.3
2015-Jul-23 23:33N 55°39' E 015°07'101 2.4
2015-Jul-22 06:09N 57°05' E 016°43'5 8.3
2015-Jul-22 05:34N 57°10' E 016°46'8 8.2
2015-Jul-22 04:33N 57°18' E 016°50'7 7.4
2015-Jul-22 03:33N 57°24' E 016°57'7 7.4
2015-Jul-22 02:34N 57°30' E 017°05'  
Track history (hours):
 
Tides and Currents Weather Stations Pressure Air Temp Water Temp Dewpoint Dewpoint Depression Visibility Wind Speed Wind Dir Waves Ship Positions

Flinterbrise

Last reported at 2015-Jul-29 06:31 UTC. Time now 2015-Jul-29 06:53 UTC.
Position N 53°45' W 000°17'.

Length 83 m; draft 5.3 m.

Type: Cargo ship. MMSI: 246044000.

Date/timePositionNaut miles runAvg speedWind from/ knotsBaromVisibWave heightAir tempDewpointWater temp
2015-Jul-29 06:31N 53°45' W 000°17'0 0.0
2015-Jul-29 05:31N 53°45' W 000°17'0 0.0
2015-Jul-29 04:31N 53°45' W 000°17'0 0.0
2015-Jul-29 03:31N 53°45' W 000°17'0 0.0
2015-Jul-29 02:31N 53°45' W 000°17'0 0.0
2015-Jul-29 01:31N 53°45' W 000°17'0 0.0
2015-Jul-29 00:31N 53°45' W 000°17'0 0.0
2015-Jul-28 23:31N 53°45' W 000°17'0 0.0
2015-Jul-28 22:31N 53°45' W 000°17'0 0.0
2015-Jul-28 21:28N 53°45' W 000°17'0 0.0
2015-Jul-28 20:31N 53°45' W 000°17'0 0.0
2015-Jul-28 19:31N 53°45' W 000°17'0 0.0
2015-Jul-28 18:31N 53°45' W 000°17'0 0.0
2015-Jul-28 17:31N 53°45' W 000°17'0 0.0
2015-Jul-28 16:31N 53°45' W 000°17'0 0.0
2015-Jul-28 15:31N 53°45' W 000°17'0 0.3
2015-Jul-28 14:33N 53°45' W 000°18'3 2.9
2015-Jul-28 13:33N 53°43' W 000°14'1111.0
2015-Jul-28 12:34N 53°35' W 000°00'1110.7
2015-Jul-28 11:33N 53°33' E 000°17'5 5.2
2015-Jul-28 10:32N 53°36' E 000°25'0 0.1
2015-Jul-28 09:26N 53°36' E 000°25'0 0.0
2015-Jul-28 07:08N 53°36' E 000°25'0 0.0
2015-Jul-28 05:26N 53°36' E 000°25'0 0.1
2015-Jul-28 04:26N 53°36' E 000°25'1 1.5
2015-Jul-28 03:33N 53°37' E 000°26'162 7.0
2015-Jul-27 04:31N 54°05' E 004°56'6 5.8
2015-Jul-27 03:32N 54°06' E 005°06'6 5.8
2015-Jul-27 02:33N 54°06' E 005°16'6 6.0
2015-Jul-27 01:33N 54°07' E 005°26'6 6.3
2015-Jul-27 00:32N 54°08' E 005°36'7 6.9
2015-Jul-26 23:33N 54°09' E 005°48'40 7.9
2015-Jul-26 18:25N 54°12' E 006°57'7 8.1
2015-Jul-26 17:33N 54°12' E 007°09'8 7.6
2015-Jul-26 16:33N 54°12' E 007°22'7 7.3
2015-Jul-26 15:33N 54°11' E 007°34'6 6.1
2015-Jul-26 14:33N 54°09' E 007°43'7 6.7
2015-Jul-26 13:33N 54°06' E 007°53'7 7.2
2015-Jul-26 12:33N 54°02' E 008°04'9 8.5
2015-Jul-26 11:33N 54°00' E 008°18'1312.6
2015-Jul-26 10:34N 53°57' E 008°39'1211.6
2015-Jul-26 09:33N 53°51' E 008°56'4 4.2
2015-Jul-26 08:31N 53°52' E 009°03'0 0.0
2015-Jul-26 07:31N 53°52' E 009°03'0 0.0
2015-Jul-26 06:28N 53°52' E 009°03'0 0.0
2015-Jul-26 05:28N 53°52' E 009°03'0 0.0
2015-Jul-26 04:31N 53°52' E 009°03'0 0.1
2015-Jul-26 03:22N 53°52' E 009°03'0 0.1
2015-Jul-26 02:31N 53°52' E 009°03'0 0.0
2015-Jul-26 01:31N 53°52' E 009°03'0 0.0
2015-Jul-26 00:31N 53°52' E 009°03'0 0.1
2015-Jul-25 23:28N 53°52' E 009°03'4 4.2
2015-Jul-25 22:33N 53°54' E 009°09'2 1.4
2015-Jul-25 21:19N 53°55' E 009°11'0 0.0
2015-Jul-25 20:33N 53°55' E 009°11'6 5.8
2015-Jul-25 19:33N 53°59' E 009°17'4 3.9
2015-Jul-25 18:32N 54°03' E 009°18'15 7.3
2015-Jul-25 16:29N 54°14' E 009°36'12 6.3
2015-Jul-25 14:33N 54°22' E 009°52'8 8.1
2015-Jul-25 13:33N 54°22' E 010°06'2 2.2
2015-Jul-25 12:33N 54°22' E 010°10'1 0.5
2015-Jul-25 11:33N 54°23' E 010°10'0 0.0
2015-Jul-25 10:33N 54°23' E 010°10'0 0.0
2015-Jul-25 09:33N 54°23' E 010°10'0 0.0
2015-Jul-25 08:33N 54°23' E 010°10'0 0.0
2015-Jul-25 07:33N 54°23' E 010°10'0 0.0
2015-Jul-25 06:33N 54°23' E 010°10'0 0.0
2015-Jul-25 05:33N 54°23' E 010°10'0 0.0
2015-Jul-25 04:33N 54°23' E 010°10'0 0.1
2015-Jul-25 03:30N 54°23' E 010°11'0 0.1
2015-Jul-25 02:33N 54°23' E 010°10'0 0.0
2015-Jul-25 01:33N 54°23' E 010°10'0 0.0
2015-Jul-25 00:33N 54°23' E 010°10'0 0.0
2015-Jul-24 23:27N 54°23' E 010°10'1 0.6
2015-Jul-24 22:34N 54°23' E 010°11'10 9.6
2015-Jul-24 21:34N 54°31' E 010°21'2010.1
2015-Jul-24 19:32N 54°36' E 010°55'10 9.8
2015-Jul-24 18:34N 54°36' E 011°12'1010.2
2015-Jul-24 17:33N 54°31' E 011°28'10 9.9
2015-Jul-24 16:33N 54°27' E 011°43'9 9.3
2015-Jul-24 15:34N 54°26' E 011°59'9 8.3
2015-Jul-24 14:32N 54°31' E 012°11'80 8.8
2015-Jul-24 05:29N 55°10' E 014°12'7 7.2
2015-Jul-24 04:33N 55°15' E 014°20'7 7.2
2015-Jul-24 03:33N 55°21' E 014°28'7 7.2
2015-Jul-24 02:33N 55°26' E 014°36'7 7.3
2015-Jul-24 01:33N 55°30' E 014°46'7 7.1
2015-Jul-24 00:30N 55°35' E 014°57'7 7.3
2015-Jul-23 23:33N 55°39' E 015°07'101 2.4
2015-Jul-22 06:09N 57°05' E 016°43'5 8.3
2015-Jul-22 05:34N 57°10' E 016°46'8 8.2
2015-Jul-22 04:33N 57°18' E 016°50'7 7.4
2015-Jul-22 03:33N 57°24' E 016°57'7 7.4
2015-Jul-22 02:34N 57°30' E 017°05'  

Dump ship's entire track history